Time;durP1;ratioP1;P1;durP2;ratioP2;P2;SDS_P1;SDS_P2;PMS_P1;PMS_P2;Temp;Humidity;BMP_temperature;BMP_pressure;BME280_temperature;BME280_humidity;BME280_pressure;Samples;Min_cycle;Max_cycle;Signal;HPM_P1;HPM_P2
2022/08/20 00:00:40;;;;;;;30.08;26.95;;;;;;;21.32;73.98;100146.27;1730026;82;21028;-69
2022/08/20 00:03:12;;;;;;;30.40;26.95;;;;;;;21.32;74.04;100150.34;1743399;81;21604;-69
2022/08/20 00:05:43;;;;;;;31.02;26.45;;;;;;;21.34;74.12;100142.80;1707201;82;21017;-70
2022/08/20 00:08:10;;;;;;;32.67;27.55;;;;;;;21.36;74.16;100146.08;1724697;82;21481;-69
2022/08/20 00:10:38;;;;;;;31.97;27.27;;;;;;;21.35;74.20;100141.74;1747863;82;20994;-69
2022/08/20 00:13:06;;;;;;;30.57;27.15;;;;;;;21.34;74.28;100152.83;1747633;82;21549;-69
2022/08/20 00:15:33;;;;;;;31.82;27.80;;;;;;;21.33;74.33;100150.64;1737147;82;21242;-69
2022/08/20 00:17:59;;;;;;;29.32;26.30;;;;;;;21.32;74.39;100153.06;1730123;81;21485;-69
2022/08/20 00:20:28;;;;;;;30.27;26.93;;;;;;;21.31;74.43;100155.50;1741314;81;21039;-69
2022/08/20 00:22:56;;;;;;;30.08;26.37;;;;;;;21.30;74.50;100160.63;1730394;81;21549;-69
2022/08/20 00:25:23;;;;;;;30.80;27.52;;;;;;;21.28;74.55;100165.50;1730253;81;21006;-69
2022/08/20 00:27:49;;;;;;;32.58;27.02;;;;;;;21.26;74.64;100166.78;1730135;81;21907;-69
2022/08/20 00:30:15;;;;;;;29.65;25.50;;;;;;;21.24;74.72;100163.51;1729381;81;20980;-69
2022/08/20 00:32:45;;;;;;;31.45;26.60;;;;;;;21.23;74.76;100177.60;1730979;81;21013;-69
2022/08/20 00:35:11;;;;;;;32.55;28.30;;;;;;;21.25;74.85;100180.88;1751723;81;21026;-69
2022/08/20 00:37:37;;;;;;;30.82;26.12;;;;;;;21.27;74.92;100186.07;1733153;81;21070;-69
2022/08/20 00:40:06;;;;;;;31.62;28.05;;;;;;;21.26;74.96;100182.53;1730591;81;21139;-69
2022/08/20 00:42:43;;;;;;;30.17;26.02;;;;;;;21.26;75.02;100189.84;1752160;81;21464;-69
2022/08/20 00:45:11;;;;;;;32.13;26.52;;;;;;;21.26;75.07;100188.48;1732276;81;21484;-69
2022/08/20 00:47:42;;;;;;;32.45;27.77;;;;;;;21.24;75.13;100190.63;1733788;81;21007;-69
2022/08/20 00:50:06;;;;;;;31.77;26.68;;;;;;;21.24;75.20;100194.17;1733105;81;21005;-69
2022/08/20 00:52:32;;;;;;;32.65;26.97;;;;;;;21.25;75.24;100198.51;1733801;81;21065;-69
2022/08/20 00:54:59;;;;;;;30.23;26.97;;;;;;;21.28;75.29;100196.69;1734692;81;20983;-69
2022/08/20 00:57:38;;;;;;;29.90;26.80;;;;;;;21.31;75.32;100201.62;1744101;81;20958;-69
2022/08/20 01:00:09;;;;;;;;;;;;;;;21.33;75.37;100198.12;1736289;81;21098;-69
2022/08/20 01:02:36;;;;;;;32.17;27.90;;;;;;;21.32;75.39;100200.53;1752833;81;20160;-69
2022/08/20 01:05:03;;;;;;;29.85;26.75;;;;;;;21.30;75.41;100201.33;1740264;81;21909;-69
2022/08/20 01:07:33;;;;;;;30.57;25.97;;;;;;;21.31;75.46;100199.44;1761372;80;20960;-69
2022/08/20 01:10:03;;;;;;;31.17;26.80;;;;;;;21.30;75.47;100198.61;1757648;81;21030;-69
2022/08/20 01:12:31;;;;;;;30.15;26.93;;;;;;;21.28;75.49;100194.50;1758899;80;20988;-69
2022/08/20 01:15:00;;;;;;;29.65;25.70;;;;;;;21.23;75.51;100193.88;1740226;81;21140;-69
2022/08/20 01:17:28;;;;;;;33.15;27.27;;;;;;;21.19;75.56;100192.71;1758930;81;21141;-69
2022/08/20 01:20:02;;;;;;;29.05;25.72;;;;;;;21.14;75.60;100191.28;1741092;80;21103;-69
2022/08/20 01:26:05;;;;;;;31.62;26.73;;;;;;;21.09;75.74;100179.47;1730323;81;21019;-69
2022/08/20 01:28:39;;;;;;;30.90;27.37;;;;;;;21.08;75.78;100181.36;1733677;81;21041;-70
2022/08/20 01:31:08;;;;;;;29.45;25.48;;;;;;;21.03;75.81;100178.57;1761294;81;21088;-70
2022/08/20 01:33:34;;;;;;;31.42;25.92;;;;;;;21.01;75.87;100174.44;1758954;81;21050;-70
2022/08/20 01:36:00;;;;;;;30.95;26.82;;;;;;;20.94;75.92;100171.88;1738242;81;21078;-70
2022/08/20 01:38:28;;;;;;;31.95;27.05;;;;;;;20.89;75.96;100169.91;1736252;81;21473;-70
2022/08/20 01:41:14;;;;;;;31.90;28.52;;;;;;;20.86;76.04;100166.86;1755452;81;20951;-70
2022/08/20 01:43:40;;;;;;;31.48;28.12;;;;;;;20.83;76.11;100169.50;1752256;80;21222;-69
2022/08/20 01:46:08;;;;;;;35.85;29.12;;;;;;;20.81;76.15;100168.11;1737890;81;21085;-69
2022/08/20 01:48:36;;;;;;;31.17;27.30;;;;;;;20.80;76.22;100163.22;1750938;81;21057;-70
2022/08/20 01:51:10;;;;;;;31.05;27.67;;;;;;;20.79;76.30;100163.48;1712896;83;21080;-70
2022/08/20 01:53:41;;;;;;;37.23;28.42;;;;;;;20.80;76.30;100170.52;1708925;83;20967;-70
2022/08/20 01:56:10;;;;;;;33.45;28.02;;;;;;;20.78;76.39;100180.80;1719306;81;21129;-70
2022/08/20 01:58:38;;;;;;;32.75;27.48;;;;;;;20.77;76.46;100188.10;1707138;82;21705;-70
2022/08/20 02:01:05;;;;;;;32.05;28.50;;;;;;;20.78;76.50;100188.93;1725664;81;21044;-69
2022/08/20 02:03:31;;;;;;;39.13;29.37;;;;;;;20.80;76.56;100188.14;1722499;82;21106;-70
2022/08/20 02:06:00;;;;;;;35.33;29.48;;;;;;;20.84;76.62;100187.95;1715876;81;21016;-70
2022/08/20 02:08:26;;;;;;;;;;;;;;;20.85;76.65;100176.05;1731633;81;21034;-70
2022/08/20 02:10:54;;;;;;;32.23;27.93;;;;;;;20.84;76.70;100168.98;1726713;82;20179;-70
2022/08/20 02:13:21;;;;;;;33.42;26.73;;;;;;;20.86;76.75;100162.80;1710658;82;21070;-70
2022/08/20 02:15:47;;;;;;;32.93;28.00;;;;;;;20.85;76.74;100163.86;1720760;82;21015;-70
2022/08/20 02:18:14;;;;;;;31.87;28.02;;;;;;;20.79;76.79;100159.41;1733919;81;21057;-70
2022/08/20 02:20:41;;;;;;;33.20;27.85;;;;;;;20.75;76.87;100160.95;1710448;81;21860;-70
2022/08/20 02:23:08;;;;;;;32.98;29.37;;;;;;;20.73;76.94;100152.23;1730695;81;20992;-70
2022/08/20 02:25:35;;;;;;;34.98;30.10;;;;;;;20.75;77.01;100154.19;1750325;81;21029;-69
2022/08/20 02:28:06;;;;;;;33.30;28.15;;;;;;;20.75;77.07;100152.83;1739964;81;21004;-69
2022/08/20 02:30:36;;;;;;;37.93;30.10;;;;;;;20.74;77.12;100147.11;1737864;81;21480;-70
2022/08/20 02:33:04;;;;;;;32.40;28.67;;;;;;;20.72;77.20;100144.63;1738434;81;21055;-70
2022/08/20 02:35:31;;;;;;;31.90;28.55;;;;;;;20.69;77.27;100136.19;1740241;81;21460;-70
2022/08/20 02:37:57;;;;;;;33.00;29.30;;;;;;;20.66;77.35;100132.58;1732406;81;20969;-70
2022/08/20 02:40:25;;;;;;;35.38;29.20;;;;;;;20.65;77.40;100130.95;1746790;81;20970;-70
2022/08/20 02:42:52;;;;;;;31.73;28.27;;;;;;;20.62;77.50;100134.16;1741290;81;21537;-70
2022/08/20 02:45:19;;;;;;;33.18;26.68;;;;;;;20.57;77.56;100127.27;1729695;81;21728;-70
2022/08/20 02:47:45;;;;;;;33.83;27.40;;;;;;;20.52;77.64;100135.28;1737709;81;20997;-70
2022/08/20 02:50:14;;;;;;;33.95;29.15;;;;;;;20.53;77.75;100126.93;1738137;81;21055;-70
2022/08/20 02:52:42;;;;;;;34.73;27.80;;;;;;;20.57;77.80;100121.84;1740686;81;21007;-70
2022/08/20 02:55:09;;;;;;;34.63;28.27;;;;;;;20.54;77.80;100126.40;1744449;81;21093;-69
2022/08/20 02:57:35;;;;;;;34.95;29.02;;;;;;;20.49;77.92;100129.83;1743852;81;21722;-72
2022/08/20 03:00:02;;;;;;;31.80;26.93;;;;;;;20.47;77.96;100131.14;1733616;81;21019;-70
2022/08/20 03:02:29;;;;;;;32.23;27.82;;;;;;;20.40;78.01;100133.46;1751296;81;20997;-70
2022/08/20 03:04:55;;;;;;;33.58;27.87;;;;;;;20.39;78.11;100129.09;1737345;80;21035;-69
2022/08/20 03:07:21;;;;;;;31.93;28.52;;;;;;;20.38;78.14;100120.67;1733969;81;21023;-70
2022/08/20 03:09:47;;;;;;;34.92;28.98;;;;;;;20.36;78.26;100116.04;1733466;81;21480;-70
2022/08/20 03:12:14;;;;;;;36.42;29.80;;;;;;;20.36;78.33;100101.14;1733780;81;21021;-70
2022/08/20 03:14:41;;;;;;;33.10;29.15;;;;;;;20.38;78.40;100097.65;1733566;81;21044;-70
2022/08/20 03:17:07;;;;;;;37.80;29.32;;;;;;;20.38;78.47;100090.88;1733993;81;21005;-70
2022/08/20 03:19:33;;;;;;;34.55;27.67;;;;;;;20.39;78.52;100091.17;1752481;81;20987;-70
2022/08/20 03:22:00;;;;;;;34.03;28.27;;;;;;;20.39;78.60;100097.95;1735747;81;21217;-70
2022/08/20 03:24:26;;;;;;;34.85;27.98;;;;;;;20.39;78.67;100093.88;1733759;81;21038;-70
2022/08/20 03:26:52;;;;;;;34.67;28.83;;;;;;;20.42;78.74;100095.28;1733405;81;20970;-69
2022/08/20 03:29:18;;;;;;;36.55;31.02;;;;;;;20.43;78.81;100100.47;1749638;81;21089;-70
2022/08/20 03:31:44;;;;;;;37.73;29.40;;;;;;;20.44;78.88;100098.03;1741533;80;20994;-69
2022/08/20 03:34:10;;;;;;;35.30;29.82;;;;;;;20.47;78.97;100095.92;1733858;81;21823;-70
2022/08/20 03:36:36;;;;;;;40.17;30.23;;;;;;;20.50;79.03;100095.43;1733757;81;21033;-70
2022/08/20 03:39:05;;;;;;;35.23;29.15;;;;;;;20.53;79.06;100093.59;1733654;81;21039;-70
2022/08/20 03:41:31;;;;;;;32.73;29.23;;;;;;;20.56;79.11;100085.80;1737855;81;21417;-70
2022/08/20 03:43:57;;;;;;;34.55;29.30;;;;;;;20.59;79.16;100090.73;1732430;81;21016;-70
2022/08/20 03:46:23;;;;;;;33.50;28.77;;;;;;;20.63;79.20;100089.70;1733120;81;21134;-69
2022/08/20 03:48:51;;;;;;;35.63;29.35;;;;;;;20.65;79.23;100084.88;1739459;81;21000;-70
2022/08/20 03:51:17;;;;;;;37.48;28.12;;;;;;;20.64;79.26;100084.59;1749865;80;21464;-70
2022/08/20 03:53:43;;;;;;;35.83;29.23;;;;;;;20.62;79.27;100086.17;1746563;81;21019;-70
2022/08/20 03:56:09;;;;;;;33.08;28.23;;;;;;;20.64;79.33;100092.72;1731026;81;21016;-70
2022/08/20 03:58:36;;;;;;;34.05;28.85;;;;;;;20.65;79.35;100091.66;1731042;81;20932;-70
2022/08/20 04:01:02;;;;;;;33.65;28.50;;;;;;;20.67;79.41;100081.38;1730414;81;21007;-70
2022/08/20 04:03:29;;;;;;;33.83;29.85;;;;;;;20.69;79.44;100079.27;1749503;81;20955;-70
2022/08/20 04:05:55;;;;;;;32.00;27.70;;;;;;;20.69;79.50;100079.27;1730637;81;21006;-70
2022/08/20 04:08:25;;;;;;;39.25;28.83;;;;;;;20.68;79.51;100089.28;1730910;81;21612;-70
2022/08/20 04:10:51;;;;;;;33.95;27.52;;;;;;;20.71;79.55;100092.03;1731022;81;21475;-70
2022/08/20 04:13:19;;;;;;;34.63;28.45;;;;;;;20.73;79.59;100098.02;1734886;81;21520;-70
2022/08/20 04:15:45;;;;;;;31.50;28.23;;;;;;;20.75;79.62;100101.33;1730899;81;21019;-70
2022/08/20 04:18:12;;;;;;;33.28;27.73;;;;;;;20.77;79.67;100089.70;1730653;81;21036;-69
2022/08/20 04:20:40;;;;;;;31.10;27.48;;;;;;;20.78;79.70;100096.77;1731054;81;20956;-70
2022/08/20 04:23:07;;;;;;;32.20;28.70;;;;;;;20.79;79.75;100098.42;1736672;81;21848;-70
2022/08/20 04:25:34;;;;;;;32.60;27.70;;;;;;;20.79;79.79;100101.13;1730940;81;21065;-70
2022/08/20 04:28:01;;;;;;;32.08;26.25;;;;;;;20.80;79.80;100097.34;1730934;81;20997;-70
2022/08/20 04:30:27;;;;;;;30.20;25.62;;;;;;;20.80;79.85;100094.63;1736782;81;20987;-70
2022/08/20 04:32:54;;;;;;;30.35;26.45;;;;;;;20.83;79.90;100104.98;1741265;81;21443;-70
2022/08/20 04:35:23;;;;;;;30.00;26.70;;;;;;;20.83;79.92;100107.69;1734085;81;21798;-70
2022/08/20 04:37:50;;;;;;;32.88;27.10;;;;;;;20.85;79.96;100112.35;1753585;81;21003;-70
2022/08/20 04:43:03;;;;;;;32.63;27.32;;;;;;;20.86;80.02;100109.94;1733168;81;21494;-70
2022/08/20 04:45:31;;;;;;;32.55;27.20;;;;;;;20.88;80.06;100106.44;1733515;81;21071;-70
2022/08/20 04:47:57;;;;;;;34.55;26.93;;;;;;;20.89;80.06;100108.09;1725494;81;21264;-70
2022/08/20 04:50:25;;;;;;;32.28;27.32;;;;;;;20.90;80.09;100115.13;1702747;81;21454;-69
2022/08/20 04:52:51;;;;;;;34.63;28.00;;;;;;;20.91;80.10;100127.63;1743157;81;21031;-70
2022/08/20 04:55:17;;;;;;;30.48;26.93;;;;;;;20.94;80.15;100135.27;1731668;81;20997;-70
2022/08/20 04:57:44;;;;;;;31.95;28.35;;;;;;;20.99;80.16;100140.80;1744604;81;21027;-70
2022/08/20 05:00:14;;;;;;;29.85;25.15;;;;;;;21.03;80.21;100145.20;1725930;81;21960;-70
2022/08/20 05:02:41;;;;;;;31.20;27.82;;;;;;;21.04;80.21;100139.52;1730735;81;20950;-70
2022/08/20 05:05:07;;;;;;;30.88;27.58;;;;;;;21.08;80.22;100134.42;1738332;81;21003;-69
2022/08/20 05:07:44;;;;;;;34.40;27.87;;;;;;;21.09;80.23;100140.97;1737970;81;21067;-70
2022/08/20 05:10:13;;;;;;;32.38;27.27;;;;;;;21.12;80.24;100144.58;1729095;81;21054;-70
2022/08/20 05:12:40;;;;;;;29.40;26.10;;;;;;;21.14;80.23;100142.47;1755062;81;21419;-70
2022/08/20 05:15:10;;;;;;;32.40;27.10;;;;;;;21.15;80.21;100142.73;1733028;81;20975;-70
2022/08/20 05:17:43;;;;;;;;;;;;;;;21.16;80.17;100139.49;1742694;81;21512;-70
2022/08/20 05:20:13;;;;;;;32.48;26.10;;;;;;;21.17;80.17;100144.69;1724048;81;20193;-70
2022/08/20 05:22:39;;;;;;;33.50;27.77;;;;;;;21.17;80.15;100147.39;1720507;81;21057;-70
2022/08/20 05:25:07;;;;;;;34.88;27.27;;;;;;;21.18;80.12;100142.23;1732218;81;21520;-70
2022/08/20 05:27:33;;;;;;;29.05;25.10;;;;;;;21.22;80.13;100141.21;1729107;81;21019;-70
2022/08/20 05:30:08;;;;;;;31.00;25.32;;;;;;;21.26;80.09;100143.20;1734532;81;21536;-70
2022/08/20 05:32:34;;;;;;;28.65;25.55;;;;;;;21.32;80.07;100147.62;1727533;81;21304;-70
2022/08/20 05:35:06;;;;;;;29.55;25.65;;;;;;;21.38;80.08;100141.77;1737384;81;21007;-70
2022/08/20 05:37:36;;;;;;;28.90;25.85;;;;;;;21.48;80.05;100143.81;1745139;81;21390;-70
2022/08/20 05:40:11;;;;;;;28.83;25.72;;;;;;;21.55;80.02;100155.33;1744685;81;20995;-70
2022/08/20 05:42:38;;;;;;;29.25;25.92;;;;;;;21.60;79.94;100157.61;1704891;83;21003;-70
2022/08/20 05:45:05;;;;;;;28.35;25.35;;;;;;;21.62;79.93;100155.45;1724959;81;20987;-70
2022/08/20 05:47:31;;;;;;;27.73;24.72;;;;;;;21.64;79.90;100157.38;1732366;81;21070;-70
2022/08/20 05:49:57;;;;;;;31.75;25.23;;;;;;;21.66;79.86;100164.75;1728368;81;21782;-69
2022/08/20 05:52:23;;;;;;;30.65;25.57;;;;;;;21.67;79.79;100168.29;1725893;81;20986;-70
2022/08/20 05:54:49;;;;;;;30.62;25.77;;;;;;;21.66;79.75;100166.64;1725433;81;21203;-70
2022/08/20 05:57:19;;;;;;;33.38;26.62;;;;;;;21.70;79.70;100171.33;1737505;81;21000;-70
2022/08/20 05:59:46;;;;;;;29.85;26.70;;;;;;;21.73;79.63;100167.29;1726438;82;25574;-70
2022/08/20 06:04:56;;;;;;;32.42;27.27;;;;;;;21.71;79.53;100177.02;1709947;82;21014;-70
2022/08/20 06:07:22;;;;;;;29.25;26.15;;;;;;;21.74;79.53;100185.23;1707509;82;20999;-70
2022/08/20 06:09:49;;;;;;;33.00;25.85;;;;;;;21.78;79.47;100180.92;1718146;82;21508;-70
2022/08/20 06:12:15;;;;;;;29.92;26.93;;;;;;;21.75;79.38;100171.39;1708560;82;21571;-70
2022/08/20 06:14:42;;;;;;;32.48;27.80;;;;;;;21.78;79.40;100171.42;1707451;82;22154;-70
2022/08/20 06:17:14;;;;;;;31.95;26.00;;;;;;;21.86;79.34;100168.30;1717973;82;20963;-70
2022/08/20 06:19:40;;;;;;;31.80;24.75;;;;;;;21.93;79.26;100172.22;1717280;82;21013;-70
2022/08/20 06:22:06;;;;;;;29.27;24.67;;;;;;;21.94;79.20;100169.27;1708377;82;21087;-70
2022/08/20 06:24:32;;;;;;;28.73;24.12;;;;;;;21.92;79.14;100174.11;1719780;81;21469;-70
2022/08/20 06:26:59;;;;;;;27.60;24.55;;;;;;;21.98;79.15;100170.42;1717913;82;22581;-70
2022/08/20 06:29:27;;;;;;;32.95;25.08;;;;;;;22.09;79.08;100172.20;1714983;82;21002;-70
2022/08/20 06:31:53;;;;;;;30.15;26.87;;;;;;;22.12;79.03;100174.42;1716407;82;21434;-70
2022/08/20 06:34:19;;;;;;;34.20;26.02;;;;;;;22.13;78.97;100174.68;1726277;82;20945;-70
2022/08/20 06:36:46;;;;;;;27.73;23.00;;;;;;;22.19;78.90;100175.06;1722148;82;21013;-70
2022/08/20 06:39:13;;;;;;;29.37;26.27;;;;;;;22.22;78.84;100171.83;1724090;82;22569;-70
2022/08/20 06:41:39;;;;;;;31.07;26.07;;;;;;;22.25;78.77;100168.61;1707431;82;21317;-70
2022/08/20 06:44:06;;;;;;;31.93;28.35;;;;;;;22.32;78.66;100175.21;1707452;82;21038;-70
2022/08/20 06:46:34;;;;;;;39.33;30.85;;;;;;;22.41;78.60;100175.87;1708370;82;20999;-70
2022/08/20 06:49:03;;;;;;;39.30;29.55;;;;;;;22.53;78.50;100180.36;1685498;83;21035;-70
2022/08/20 06:51:29;;;;;;;33.48;27.70;;;;;;;22.62;78.37;100187.02;1686308;83;22559;-70
2022/08/20 06:53:55;;;;;;;35.83;27.98;;;;;;;22.74;78.30;100179.55;1695262;84;21295;-70
2022/08/20 06:56:22;;;;;;;34.05;27.15;;;;;;;22.83;78.16;100187.56;1702224;83;21014;-70
2022/08/20 06:58:48;;;;;;;33.10;29.23;;;;;;;22.87;78.05;100191.39;1702675;83;21010;-70
2022/08/20 07:01:16;;;;;;;33.78;27.25;;;;;;;23.00;77.97;100186.93;1691578;83;21031;-70
2022/08/20 07:03:43;;;;;;;44.00;31.68;;;;;;;23.10;77.77;100170.70;1689838;83;22456;-70
2022/08/20 07:06:09;;;;;;;53.05;37.33;;;;;;;23.15;77.58;100168.02;1710597;83;20991;-70
2022/08/20 07:08:36;;;;;;;49.13;34.53;;;;;;;23.20;77.42;100173.52;1709236;82;21063;-70
2022/08/20 07:11:02;;;;;;;33.08;28.95;;;;;;;23.27;77.24;100167.33;1693282;84;21054;-70
2022/08/20 07:13:28;;;;;;;35.33;28.98;;;;;;;23.28;77.09;100170.34;1703501;83;21363;-71
2022/08/20 07:15:54;;;;;;;33.45;28.38;;;;;;;23.33;76.88;100162.20;1687108;83;21793;-70
2022/08/20 07:18:21;;;;;;;34.40;28.27;;;;;;;23.52;76.79;100149.05;1670689;84;21023;-70
2022/08/20 07:20:47;;;;;;;39.83;29.57;;;;;;;23.73;76.62;100145.94;1706141;81;21029;-70
2022/08/20 07:23:13;;;;;;;33.13;29.40;;;;;;;23.91;76.46;100149.59;1698962;84;21074;-70
2022/08/20 07:25:41;;;;;;;36.85;31.37;;;;;;;24.11;76.18;100138.80;1703164;83;21047;-70
2022/08/20 07:28:17;;;;;;;42.15;29.00;;;;;;;24.32;75.95;100135.11;1684496;84;21947;-71
2022/08/20 07:33:30;;;;;;;32.30;28.87;;;;;;;24.61;75.11;100129.22;1697979;83;21030;-70
2022/08/20 07:35:57;;;;;;;35.98;29.55;;;;;;;24.78;74.91;100131.98;1719414;83;21582;-70
2022/08/20 07:38:24;;;;;;;34.05;29.52;;;;;;;24.89;74.52;100131.50;1714977;83;21381;-70
2022/08/20 07:40:59;;;;;;;34.98;30.37;;;;;;;24.90;74.17;100131.78;1716358;83;21716;-70
2022/08/20 07:43:26;;;;;;;35.13;30.12;;;;;;;24.79;73.93;100145.09;1701840;83;20943;-70
2022/08/20 07:45:55;;;;;;;34.23;30.57;;;;;;;24.73;73.67;100144.81;1710354;83;21404;-70
2022/08/20 07:48:22;;;;;;;34.03;30.50;;;;;;;24.73;73.46;100157.09;1719716;82;21148;-70
2022/08/20 07:50:48;;;;;;;35.88;29.80;;;;;;;24.66;73.27;100159.25;1736612;81;21308;-70
2022/08/20 07:53:15;;;;;;;34.80;30.05;;;;;;;24.74;73.10;100165.52;1726104;81;21920;-70
2022/08/20 07:55:41;;;;;;;37.65;29.90;;;;;;;24.78;72.87;100161.17;1725754;81;20895;-70
2022/08/20 07:58:11;;;;;;;33.05;29.32;;;;;;;24.72;72.75;100166.34;1729658;81;21062;-70
2022/08/20 08:00:37;;;;;;;35.90;31.50;;;;;;;24.76;72.55;100160.63;1727065;81;21201;-70
2022/08/20 08:03:03;;;;;;;34.25;30.52;;;;;;;24.75;72.41;100172.63;1732269;81;20959;-70
2022/08/20 08:05:35;;;;;;;40.65;33.33;;;;;;;24.69;72.18;100175.07;1730375;81;22586;-70
2022/08/20 08:08:02;;;;;;;41.45;32.55;;;;;;;24.66;72.08;100175.61;1730206;81;21027;-70
2022/08/20 08:10:28;;;;;;;37.90;32.13;;;;;;;24.62;71.99;100166.31;1727568;81;21007;-70
2022/08/20 08:12:58;;;;;;;35.45;31.75;;;;;;;24.53;71.88;100171.99;1727194;81;21010;-70
2022/08/20 08:15:28;;;;;;;32.98;28.87;;;;;;;24.47;71.83;100176.63;1726682;81;20999;-70
2022/08/20 08:17:55;;;;;;;32.35;29.02;;;;;;;24.44;71.76;100172.24;1729149;81;22416;-70
2022/08/20 08:20:22;;;;;;;32.28;28.67;;;;;;;24.46;71.64;100170.05;1727708;81;21492;-70
2022/08/20 08:22:48;;;;;;;35.17;31.35;;;;;;;24.51;71.53;100176.91;1729182;81;20951;-70
2022/08/20 08:25:15;;;;;;;37.40;32.17;;;;;;;24.60;71.39;100178.02;1733896;81;21019;-71
2022/08/20 08:27:45;;;;;;;33.63;30.12;;;;;;;24.77;71.28;100177.28;1728728;81;21000;-70
2022/08/20 08:30:12;;;;;;;32.53;29.02;;;;;;;24.98;71.08;100172.16;1741813;81;21762;-70
2022/08/20 08:33:26;;;;;;;35.10;29.67;;;;;;;25.15;70.78;100171.39;1736614;81;21027;-70
2022/08/20 08:35:09;;;;;;;34.67;30.32;;;;;;;25.23;70.61;100174.93;1707473;83;21002;-70
2022/08/20 08:37:36;;;;;;;36.95;31.87;;;;;;;25.27;70.37;100180.13;1729828;81;20996;-70
2022/08/20 08:40:04;;;;;;;33.70;30.08;;;;;;;25.25;70.05;100176.86;1730381;81;21530;-70
2022/08/20 08:42:41;;;;;;;34.73;28.98;;;;;;;25.25;69.96;100168.67;1686684;81;21875;-70
2022/08/20 08:45:09;;;;;;;31.82;28.45;;;;;;;25.31;69.81;100166.75;1713420;81;21004;-70
2022/08/20 08:47:36;;;;;;;34.92;28.92;;;;;;;25.42;69.60;100156.65;1706871;81;21234;-71
2022/08/20 08:50:04;;;;;;;34.63;28.17;;;;;;;25.36;69.30;100154.48;1685467;84;21037;-70
2022/08/20 08:52:32;;;;;;;31.77;28.45;;;;;;;25.35;69.19;100160.48;1693965;83;21058;-70
2022/08/20 08:55:00;;;;;;;35.60;30.00;;;;;;;25.37;69.00;100163.50;1683205;83;22541;-70
2022/08/20 08:57:27;;;;;;;40.30;29.87;;;;;;;25.37;68.63;100159.40;1687264;83;21064;-70
2022/08/20 08:59:59;;;;;;;31.87;28.00;;;;;;;25.37;68.63;100159.40;1685788;83;21950;-70
2022/08/20 09:02:26;;;;;;;33.65;29.07;;;;;;;25.44;68.51;100160.73;1681751;84;21393;-70
2022/08/20 09:04:55;;;;;;;35.78;28.40;;;;;;;25.53;68.34;100159.69;1690204;83;21343;-71
2022/08/20 09:07:23;;;;;;;31.48;27.58;;;;;;;25.59;68.20;100159.95;1693428;83;22588;-71
2022/08/20 09:09:50;;;;;;;34.80;28.32;;;;;;;25.68;68.07;100149.58;1686426;83;21019;-70
2022/08/20 09:12:21;;;;;;;32.35;28.85;;;;;;;25.89;67.88;100150.91;1687110;83;21091;-70
2022/08/20 09:14:48;;;;;;;30.02;26.48;;;;;;;25.94;67.53;100155.80;1686112;83;21039;-70
2022/08/20 09:17:15;;;;;;;36.35;26.82;;;;;;;25.87;67.40;100161.27;1688151;83;21024;-70
2022/08/20 09:19:41;;;;;;;31.73;27.80;;;;;;;25.89;67.30;100159.92;1685037;83;22612;-71
2022/08/20 09:22:13;;;;;;;32.53;29.12;;;;;;;26.01;67.04;100159.06;1685055;83;20964;-70
2022/08/20 09:24:40;;;;;;;32.13;28.45;;;;;;;26.09;66.79;100165.34;1696847;83;21093;-71
2022/08/20 09:27:06;;;;;;;33.00;29.50;;;;;;;26.10;66.45;100168.35;1696638;83;21023;-71
2022/08/20 09:29:32;;;;;;;32.63;29.15;;;;;;;26.13;66.28;100175.17;1696812;84;21014;-70
2022/08/20 09:32:17;;;;;;;37.88;28.85;;;;;;;26.08;66.07;100174.62;1695862;83;21931;-70
2022/08/20 09:34:47;;;;;;;39.00;32.60;;;;;;;26.00;65.91;100173.81;1698067;84;21014;-70
2022/08/20 09:37:13;;;;;;;32.83;28.75;;;;;;;26.00;65.74;100164.25;1710738;83;21085;-70
2022/08/20 09:39:40;;;;;;;31.70;26.70;;;;;;;26.02;65.60;100168.91;1677665;84;21436;-76
2022/08/20 09:42:12;;;;;;;30.72;27.55;;;;;;;26.08;65.45;100167.80;1689234;83;21389;-76
2022/08/20 09:44:38;;;;;;;33.00;27.42;;;;;;;26.21;65.25;100164.50;1697507;84;22448;-76
2022/08/20 09:47:04;;;;;;;28.27;25.48;;;;;;;26.29;65.04;100169.95;1696209;83;21457;-76
2022/08/20 09:49:31;;;;;;;31.35;26.50;;;;;;;26.28;64.69;100173.22;1682661;83;21071;-75
2022/08/20 09:51:56;;;;;;;29.45;26.33;;;;;;;26.15;64.44;100174.33;1701170;83;21012;-76
2022/08/20 09:54:26;;;;;;;31.50;25.23;;;;;;;26.17;64.40;100178.48;1678641;84;21467;-75
2022/08/20 09:56:50;;;;;;;29.77;26.57;;;;;;;26.26;64.26;100173.23;1684801;83;21861;-75
2022/08/20 09:59:17;;;;;;;32.17;28.20;;;;;;;26.31;63.99;100176.80;1695262;83;21004;-76
2022/08/20 10:01:43;;;;;;;35.05;31.02;;;;;;;26.32;63.88;100170.20;1700520;83;21527;-76
2022/08/20 10:04:09;;;;;;;37.03;30.92;;;;;;;26.29;63.74;100168.03;1704732;83;20947;-76
2022/08/20 10:06:40;;;;;;;32.23;28.85;;;;;;;26.29;63.75;100168.03;1697403;83;20995;-76
2022/08/20 10:09:06;;;;;;;31.30;27.85;;;;;;;26.40;63.69;100168.81;1706756;83;21851;-76
2022/08/20 10:11:32;;;;;;;32.17;28.73;;;;;;;26.48;63.46;100164.69;1692301;83;21001;-76
2022/08/20 10:13:58;;;;;;;34.60;29.85;;;;;;;26.56;63.38;100162.20;1692633;84;21472;-76
2022/08/20 10:16:24;;;;;;;32.55;29.05;;;;;;;26.81;63.31;100161.25;1692349;83;21474;-76
2022/08/20 10:18:50;;;;;;;39.05;28.10;;;;;;;27.01;63.04;100163.88;1692447;84;21050;-76
2022/08/20 10:21:16;;;;;;;32.73;27.52;;;;;;;27.13;62.78;100172.55;1692403;83;21961;-76
2022/08/20 10:23:42;;;;;;;39.70;28.83;;;;;;;27.06;62.61;100165.75;1695497;83;21035;-76
2022/08/20 10:26:09;;;;;;;34.03;29.70;;;;;;;26.91;62.46;100169.97;1704987;83;20991;-76
2022/08/20 10:28:35;;;;;;;32.20;28.77;;;;;;;26.74;62.39;100171.69;1703052;83;21035;-76
2022/08/20 10:31:03;;;;;;;39.27;28.60;;;;;;;26.53;62.41;100171.52;1703689;83;21484;-76
2022/08/20 10:33:29;;;;;;;34.30;29.95;;;;;;;26.49;62.41;100166.33;1685361;83;21905;-76
2022/08/20 10:35:55;;;;;;;30.15;27.15;;;;;;;26.43;62.44;100168.25;1683053;84;21041;-76
2022/08/20 10:38:21;;;;;;;34.63;30.97;;;;;;;26.41;62.42;100171.00;1684213;84;21015;-76
2022/08/20 10:40:47;;;;;;;32.17;28.70;;;;;;;26.36;62.42;100176.48;1696376;84;21010;-76
2022/08/20 10:43:13;;;;;;;34.27;28.80;;;;;;;26.25;62.35;100175.15;1697382;84;21093;-75
2022/08/20 10:45:39;;;;;;;33.78;28.25;;;;;;;26.21;62.36;100174.06;1697362;84;21863;-76
2022/08/20 10:48:06;;;;;;;32.90;29.40;;;;;;;26.15;62.25;100176.52;1714030;81;21007;-76
2022/08/20 10:50:32;;;;;;;32.25;28.70;;;;;;;26.14;62.22;100176.81;1710668;82;21053;-76
2022/08/20 10:52:59;;;;;;;35.35;30.82;;;;;;;26.09;62.16;100175.45;1735826;81;21025;-76
2022/08/20 10:55:25;;;;;;;34.60;30.80;;;;;;;26.01;62.15;100172.73;1733358;81;21012;-76
2022/08/20 10:57:51;;;;;;;39.67;30.15;;;;;;;26.02;62.22;100179.84;1733575;81;21876;-76
2022/08/20 11:00:17;;;;;;;33.40;28.27;;;;;;;26.05;62.17;100175.19;1733505;81;21074;-76
2022/08/20 11:02:43;;;;;;;38.00;29.18;;;;;;;26.09;62.11;100169.44;1733814;81;21030;-75
2022/08/20 11:05:09;;;;;;;35.20;29.05;;;;;;;26.14;62.11;100171.34;1733521;81;20983;-76
2022/08/20 11:07:38;;;;;;;36.53;29.55;;;;;;;26.15;62.09;100166.95;1733781;81;20991;-76
2022/08/20 11:10:06;;;;;;;36.60;30.23;;;;;;;26.05;62.10;100166.98;1733949;81;21498;-76
2022/08/20 11:12:32;;;;;;;35.00;29.12;;;;;;;26.03;62.09;100162.36;1733344;81;21063;-76
2022/08/20 11:14:58;;;;;;;33.92;30.15;;;;;;;26.04;62.06;100168.07;1733690;81;20960;-76
2022/08/20 11:17:29;;;;;;;30.97;27.65;;;;;;;26.02;62.01;100169.45;1733417;81;21018;-76
2022/08/20 11:19:55;;;;;;;30.85;26.93;;;;;;;25.93;62.01;100162.92;1733568;81;21797;-76
2022/08/20 11:22:21;;;;;;;32.63;28.17;;;;;;;25.88;61.98;100162.37;1733679;81;22783;-76